Time;durP1;ratioP1;P1;durP2;ratioP2;P2;SDS_P1;SDS_P2;PMS_P1;PMS_P2;Temp;Humidity;BMP_temperature;BMP_pressure;BME280_temperature;BME280_humidity;BME280_pressure;Samples;Min_cycle;Max_cycle;Signal;HPM_P1;HPM_P2
2021/11/01 00:00:58;;;;;;;0.30;0.30;;;13.30;99.90;;;;;;5013987;28;20410;-67
2021/11/01 00:03:24;;;;;;;0.30;0.30;;;13.40;99.90;;;;;;5013767;28;20923;-68
2021/11/01 00:05:50;;;;;;;0.30;0.30;;;13.40;99.90;;;;;;5014013;28;20403;-69
2021/11/01 00:08:16;;;;;;;0.33;0.33;;;13.50;99.90;;;;;;5014004;28;20167;-67
2021/11/01 00:10:42;;;;;;;0.30;0.30;;;13.60;99.90;;;;;;5013834;28;20406;-68
2021/11/01 00:13:08;;;;;;;0.30;0.30;;;13.60;99.90;;;;;;5013631;28;20434;-68
2021/11/01 00:15:33;;;;;;;0.30;0.30;;;13.60;99.90;;;;;;5013664;28;20406;-68
2021/11/01 00:17:59;;;;;;;0.30;0.30;;;13.60;99.90;;;;;;5013884;28;20194;-68
2021/11/01 00:20:25;;;;;;;0.40;0.40;;;13.60;99.90;;;;;;5013643;28;20203;-69
2021/11/01 00:22:52;;;;;;;0.30;0.30;;;13.60;99.90;;;;;;5028704;28;20207;-68
2021/11/01 00:25:18;;;;;;;0.30;0.30;;;13.70;99.90;;;;;;5013525;28;20402;-69
2021/11/01 00:27:44;;;;;;;0.80;0.80;;;13.80;99.90;;;;;;5013724;28;20402;-68
2021/11/01 00:30:11;;;;;;;0.30;0.30;;;13.80;99.90;;;;;;5013832;28;20413;-69
2021/11/01 00:32:37;;;;;;;0.30;0.30;;;13.70;99.90;;;;;;5013538;28;20429;-68
2021/11/01 00:35:05;;;;;;;0.30;0.30;;;13.80;99.90;;;;;;5013657;28;20407;-67
2021/11/01 00:37:31;;;;;;;0.33;0.33;;;13.80;99.90;;;;;;5017553;28;20421;-67
2021/11/01 00:39:59;;;;;;;0.30;0.30;;;13.80;99.90;;;;;;5017355;28;20482;-69
2021/11/01 00:42:25;;;;;;;0.30;0.30;;;13.80;99.90;;;;;;5017311;28;20452;-69
2021/11/01 00:44:51;;;;;;;0.30;0.30;;;13.80;99.90;;;;;;5017487;28;20489;-67
2021/11/01 00:47:16;;;;;;;0.63;0.63;;;13.90;99.90;;;;;;5017297;28;20486;-69
2021/11/01 00:49:43;;;;;;;0.30;0.30;;;13.90;99.90;;;;;;5017129;28;20194;-68
2021/11/01 00:52:09;;;;;;;1.73;1.63;;;14.00;99.90;;;;;;5017210;28;20281;-69
2021/11/01 00:54:36;;;;;;;0.30;0.30;;;14.00;99.90;;;;;;5017191;28;20475;-69
2021/11/01 00:57:02;;;;;;;0.30;0.30;;;14.10;99.90;;;;;;5017170;28;20740;-68
2021/11/01 00:59:27;;;;;;;0.30;0.30;;;14.10;99.90;;;;;;5017077;28;20449;-68
2021/11/01 01:01:53;;;;;;;0.30;0.30;;;14.00;99.90;;;;;;5017339;28;20500;-68
2021/11/01 01:04:19;;;;;;;0.30;0.30;;;14.00;99.90;;;;;;5017281;28;20186;-69
2021/11/01 01:06:46;;;;;;;0.30;0.30;;;14.10;99.90;;;;;;5016950;28;20166;-68
2021/11/01 01:09:12;;;;;;;0.30;0.30;;;14.00;99.90;;;;;;5017116;28;20168;-67
2021/11/01 01:11:38;;;;;;;0.30;0.30;;;14.10;99.90;;;;;;5016937;28;20431;-67
2021/11/01 01:14:04;;;;;;;0.30;0.30;;;14.10;99.90;;;;;;5016790;28;20175;-69
2021/11/01 01:16:31;;;;;;;0.30;0.30;;;14.10;99.90;;;;;;5016637;28;20410;-67
2021/11/01 01:18:59;;;;;;;0.30;0.30;;;14.10;99.90;;;;;;5016703;28;20450;-67
2021/11/01 01:24:11;;;;;;;0.30;0.30;;;14.10;99.90;;;;;;5017036;28;20457;-68
2021/11/01 01:26:38;;;;;;;0.33;0.33;;;14.10;99.90;;;;;;5016435;28;20413;-68
2021/11/01 01:29:06;;;;;;;0.30;0.30;;;14.10;99.90;;;;;;5016599;28;20406;-69
2021/11/01 01:31:32;;;;;;;0.30;0.30;;;14.10;99.90;;;;;;5015272;28;20445;-69
2021/11/01 01:33:59;;;;;;;0.30;0.30;;;14.10;99.90;;;;;;5016900;28;20410;-69
2021/11/01 01:36:25;;;;;;;0.30;0.30;;;14.00;99.90;;;;;;5016345;28;20406;-69
2021/11/01 01:38:50;;;;;;;0.33;0.33;;;14.00;99.90;;;;;;5016537;28;20469;-67
2021/11/01 01:41:23;;;;;;;0.30;0.30;;;13.90;99.90;;;;;;5016409;28;20479;-69
2021/11/01 01:43:52;;;;;;;0.30;0.30;;;13.90;99.90;;;;;;5016748;28;20185;-68
2021/11/01 01:46:20;;;;;;;0.30;0.30;;;13.90;99.90;;;;;;5015664;28;20421;-68
2021/11/01 01:48:46;;;;;;;0.30;0.30;;;13.80;99.90;;;;;;5015840;28;20394;-68
2021/11/01 01:51:13;;;;;;;0.30;0.30;;;13.90;99.90;;;;;;5016115;28;20532;-69
2021/11/01 01:53:40;;;;;;;0.67;0.67;;;13.90;99.90;;;;;;5016074;28;20242;-68
2021/11/01 01:56:06;;;;;;;0.30;0.30;;;13.80;99.90;;;;;;5015910;28;20434;-67
2021/11/01 01:58:35;;;;;;;0.30;0.30;;;13.70;99.90;;;;;;5016090;28;20448;-67
2021/11/01 02:01:12;;;;;;;0.30;0.30;;;13.70;99.90;;;;;;5015896;28;20422;-68
2021/11/01 02:03:40;;;;;;;0.30;0.30;;;13.70;99.90;;;;;;5015969;28;20382;-69
2021/11/01 02:06:11;;;;;;;0.30;0.30;;;13.70;99.90;;;;;;5015763;28;20424;-69
2021/11/01 02:08:52;;;;;;;0.30;0.30;;;13.60;99.90;;;;;;5016327;28;20407;-68
2021/11/01 02:11:26;;;;;;;0.30;0.30;;;13.40;99.90;;;;;;5015968;28;20406;-69
2021/11/01 02:13:54;;;;;;;0.30;0.30;;;13.50;99.90;;;;;;5015863;28;20474;-68
2021/11/01 02:16:20;;;;;;;0.30;0.30;;;13.60;99.90;;;;;;5015560;28;20433;-69
2021/11/01 02:18:50;;;;;;;0.40;0.40;;;13.70;99.90;;;;;;5015699;28;20508;-68
2021/11/01 02:21:23;;;;;;;0.30;0.30;;;13.70;99.90;;;;;;5015749;28;20399;-68
2021/11/01 02:24:05;;;;;;;0.30;0.30;;;13.70;99.90;;;;;;5015749;28;20393;-68
2021/11/01 02:26:35;;;;;;;0.30;0.30;;;13.50;99.90;;;;;;5015497;28;20884;-69
2021/11/01 02:29:02;;;;;;;0.30;0.30;;;13.30;99.90;;;;;;5015270;28;20411;-69
2021/11/01 02:31:28;;;;;;;0.30;0.30;;;13.20;99.90;;;;;;5015220;28;20927;-69
2021/11/01 02:33:55;;;;;;;0.30;0.30;;;13.20;99.90;;;;;;5015219;28;20863;-68
2021/11/01 02:36:20;;;;;;;0.30;0.30;;;13.00;99.90;;;;;;5015114;28;20403;-69
2021/11/01 02:38:49;;;;;;;0.30;0.30;;;13.10;99.90;;;;;;5014991;28;20453;-69
2021/11/01 02:41:21;;;;;;;1.33;1.23;;;13.10;99.90;;;;;;5015164;28;20649;-68
2021/11/01 02:43:58;;;;;;;0.30;0.30;;;13.00;99.90;;;;;;5014983;28;20411;-68
2021/11/01 02:46:25;;;;;;;0.30;0.30;;;13.10;99.90;;;;;;5015040;28;20434;-68
2021/11/01 02:48:52;;;;;;;0.30;0.30;;;13.10;99.90;;;;;;5015095;28;20760;-69
2021/11/01 02:51:20;;;;;;;0.30;0.30;;;13.10;99.90;;;;;;5014881;28;20982;-67
2021/11/01 02:53:47;;;;;;;0.30;0.30;;;13.10;99.90;;;;;;5014875;28;20406;-69
2021/11/01 02:56:13;;;;;;;0.30;0.30;;;13.10;99.90;;;;;;5014649;28;20411;-69
2021/11/01 02:58:40;;;;;;;0.30;0.30;;;12.90;99.90;;;;;;5014565;28;20870;-69
2021/11/01 03:01:14;;;;;;;0.30;0.30;;;12.90;99.90;;;;;;5014755;28;20401;-68
2021/11/01 03:03:42;;;;;;;0.30;0.30;;;12.80;99.90;;;;;;5014790;28;20437;-69
2021/11/01 03:06:09;;;;;;;0.30;0.30;;;12.70;99.90;;;;;;5014458;28;20434;-68
2021/11/01 03:08:37;;;;;;;0.30;0.30;;;12.70;99.90;;;;;;5014730;28;20398;-68
2021/11/01 03:11:03;;;;;;;0.30;0.30;;;12.70;99.90;;;;;;5014518;28;20402;-68
2021/11/01 03:13:32;;;;;;;0.30;0.30;;;12.70;99.90;;;;;;5014472;28;20430;-68
2021/11/01 03:15:59;;;;;;;0.30;0.30;;;12.60;99.90;;;;;;5014343;28;20413;-69
2021/11/01 03:18:29;;;;;;;0.30;0.30;;;12.60;99.90;;;;;;5014627;28;20892;-69
2021/11/01 03:20:55;;;;;;;0.30;0.30;;;12.60;99.90;;;;;;5014563;28;20407;-69
2021/11/01 03:23:26;;;;;;;0.30;0.30;;;12.50;99.90;;;;;;5014232;28;20842;-68
2021/11/01 03:26:10;;;;;;;0.30;0.30;;;12.60;99.90;;;;;;5014300;28;20246;-67
2021/11/01 03:28:36;;;;;;;0.30;0.30;;;12.60;99.90;;;;;;5013503;28;20640;-69
2021/11/01 03:31:06;;;;;;;0.30;0.30;;;12.50;99.90;;;;;;5014390;28;20959;-68
2021/11/01 03:33:38;;;;;;;0.30;0.30;;;12.60;99.90;;;;;;5014053;28;20422;-69
2021/11/01 03:36:05;;;;;;;0.30;0.30;;;12.40;99.90;;;;;;5014132;28;20414;-68
2021/11/01 03:38:32;;;;;;;0.30;0.30;;;12.30;99.90;;;;;;5013925;28;20481;-68
2021/11/01 03:40:59;;;;;;;0.30;0.30;;;12.30;99.90;;;;;;5014058;28;20409;-69
2021/11/01 03:43:31;;;;;;;0.30;0.30;;;12.10;99.90;;;;;;5013800;28;20430;-67
2021/11/01 03:45:59;;;;;;;0.30;0.30;;;12.00;99.90;;;;;;5013887;28;20410;-67
2021/11/01 03:48:27;;;;;;;0.30;0.30;;;12.00;99.90;;;;;;5013696;28;20414;-67
2021/11/01 03:51:01;;;;;;;0.30;0.30;;;11.80;99.90;;;;;;5013932;28;20192;-68
2021/11/01 03:53:27;;;;;;;0.30;0.30;;;11.60;99.90;;;;;;5013989;28;20630;-69
2021/11/01 03:55:52;;;;;;;0.30;0.30;;;11.70;99.90;;;;;;5013731;28;20447;-68
2021/11/01 03:58:18;;;;;;;0.30;0.30;;;11.80;99.90;;;;;;5014012;28;20203;-68
2021/11/01 04:00:44;;;;;;;0.30;0.30;;;11.90;99.90;;;;;;5013888;28;20184;-69
2021/11/01 04:03:10;;;;;;;0.30;0.30;;;11.90;99.90;;;;;;5013712;28;20940;-68
2021/11/01 04:05:37;;;;;;;0.30;0.30;;;12.00;99.90;;;;;;5013559;28;20391;-68
2021/11/01 04:08:03;;;;;;;0.30;0.30;;;12.10;99.90;;;;;;5013658;28;20399;-69
2021/11/01 04:10:29;;;;;;;0.30;0.30;;;12.10;99.90;;;;;;5013180;28;20534;-69
2021/11/01 04:12:55;;;;;;;0.30;0.30;;;12.10;99.90;;;;;;5013688;28;20187;-69
2021/11/01 04:15:23;;;;;;;0.30;0.30;;;12.10;99.90;;;;;;5013432;28;20410;-69
2021/11/01 04:17:54;;;;;;;0.30;0.30;;;12.10;99.90;;;;;;5013596;28;20395;-69
2021/11/01 04:22:51;;;;;;;0.30;0.30;;;12.00;99.90;;;;;;5013449;28;20278;-69
2021/11/01 04:25:19;;;;;;;0.30;0.30;;;11.90;99.90;;;;;;5013594;28;20168;-69
2021/11/01 04:27:45;;;;;;;0.30;0.30;;;11.90;99.90;;;;;;5013648;28;20756;-67
2021/11/01 04:30:11;;;;;;;0.30;0.30;;;12.00;99.90;;;;;;5028769;28;20481;-69
2021/11/01 04:32:42;;;;;;;0.30;0.30;;;11.90;99.90;;;;;;5013350;28;20430;-69
2021/11/01 04:35:26;;;;;;;0.30;0.30;;;11.70;99.90;;;;;;5013500;28;20172;-68
2021/11/01 04:38:01;;;;;;;3.40;1.25;;;11.60;99.90;;;;;;5013429;28;20178;-69
2021/11/01 04:40:51;;;;;;;0.30;0.30;;;11.50;99.90;;;;;;5013488;28;20791;-69
2021/11/01 04:54:16;;;;;;;0.32;0.32;;;11.30;99.90;;;;;;5013158;28;20218;-69
2021/11/01 04:56:43;;;;;;;0.30;0.30;;;11.40;99.90;;;;;;5013033;28;20713;-68
2021/11/01 04:59:09;;;;;;;0.30;0.30;;;11.50;99.90;;;;;;5013491;28;20254;-69
2021/11/01 05:01:40;;;;;;;0.30;0.30;;;11.40;99.90;;;;;;5013091;28;20200;-69
2021/11/01 05:04:08;;;;;;;0.30;0.30;;;11.30;99.90;;;;;;5013352;28;20152;-69
2021/11/01 05:06:37;;;;;;;0.30;0.30;;;11.30;99.90;;;;;;5013058;28;20199;-67
2021/11/01 05:14:25;;;;;;;0.30;0.30;;;11.10;99.90;;;;;;5013361;28;20230;-68
2021/11/01 05:17:19;;;;;;;0.30;0.30;;;11.00;99.90;;;;;;5012944;28;20513;-68
2021/11/01 05:19:50;;;;;;;0.30;0.30;;;11.00;99.90;;;;;;5012780;28;20203;-68
2021/11/01 05:25:10;;;;;;;0.30;0.30;;;11.00;99.90;;;;;;5015041;28;20622;-68
2021/11/01 05:27:43;;;;;;;0.30;0.30;;;11.00;99.90;;;;;;5016658;28;20179;-67
2021/11/01 05:30:35;;;;;;;0.30;0.30;;;11.10;99.90;;;;;;5016497;28;20179;-68
2021/11/01 05:33:32;;;;;;;0.30;0.30;;;10.90;99.90;;;;;;5016221;28;20741;-68
2021/11/01 05:35:52;;;;;;;0.30;0.30;;;10.90;99.90;;;;;;5016026;28;20249;-67
2021/11/01 05:38:17;;;;;;;0.30;0.30;;;10.90;99.90;;;;;;5016455;28;20254;-68
2021/11/01 05:40:43;;;;;;;0.30;0.30;;;10.90;99.90;;;;;;5016313;28;20567;-67
2021/11/01 05:43:09;;;;;;;0.30;0.30;;;10.70;99.90;;;;;;5016249;28;20183;-67
2021/11/01 05:45:34;;;;;;;0.30;0.30;;;10.70;99.90;;;;;;5016046;28;20167;-68
2021/11/01 05:48:03;;;;;;;0.30;0.30;;;10.70;99.90;;;;;;5016300;28;20183;-68
2021/11/01 05:50:33;;;;;;;0.30;0.30;;;10.70;99.90;;;;;;5016039;28;20687;-68
2021/11/01 05:53:01;;;;;;;0.30;0.30;;;10.50;99.90;;;;;;5016113;28;20273;-67
2021/11/01 05:58:07;;;;;;;0.30;0.30;;;10.50;99.90;;;;;;5016003;28;20202;-68
2021/11/01 06:16:10;;;;;;;0.30;0.30;;;10.20;99.90;;;;;;5014259;28;20179;-68
2021/11/01 06:18:36;;;;;;;0.30;0.30;;;10.20;99.90;;;;;;5014336;28;20186;-68
2021/11/01 06:21:06;;;;;;;0.30;0.30;;;9.90;99.90;;;;;;5015891;28;20406;-68
2021/11/01 06:23:33;;;;;;;0.30;0.30;;;9.90;99.90;;;;;;5015411;28;20187;-68
2021/11/01 06:26:00;;;;;;;0.30;0.30;;;10.00;99.90;;;;;;5015345;28;20255;-68
2021/11/01 06:28:26;;;;;;;0.30;0.30;;;9.70;99.90;;;;;;5015530;28;20164;-67
2021/11/01 06:30:55;;;;;;;0.30;0.30;;;9.60;99.90;;;;;;5015479;28;20222;-67
2021/11/01 06:33:47;;;;;;;0.30;0.30;;;9.70;99.90;;;;;;5014611;28;20419;-67
2021/11/01 06:41:44;;;;;;;0.30;0.30;;;10.20;99.90;;;;;;5015383;28;20178;-67
2021/11/01 06:57:37;;;;;;;0.30;0.30;;;10.10;99.90;;;;;;5015235;28;20183;-68
2021/11/01 08:21:12;;;;;;;0.30;0.30;;;10.40;99.20;;;;;;5013777;28;20290;-68
2021/11/01 08:26:50;;;;;;;0.30;0.30;;;10.40;99.20;;;;;;5013711;28;20559;-67
2021/11/01 08:45:13;;;;;;;0.30;0.30;;;10.20;99.80;;;;;;5013909;28;20217;-68
2021/11/01 09:03:53;;;;;;;0.30;0.30;;;10.70;99.00;;;;;;5017561;28;20210;-68
2021/11/01 09:23:09;;;;;;;0.30;0.30;;;10.80;99.90;;;;;;5016989;28;20283;-68
2021/11/01 09:25:13;;;;;;;0.30;0.30;;;11.00;99.50;;;;;;5016100;28;20190;-67
2021/11/01 09:27:42;;;;;;;0.40;0.40;;;11.20;99.10;;;;;;5016921;28;20175;-66
2021/11/01 09:43:19;;;;;;;0.30;0.30;;;11.00;98.60;;;;;;5016606;28;20282;-67
2021/11/01 09:45:46;;;;;;;0.30;0.30;;;11.00;98.70;;;;;;5016313;28;20247;-68
2021/11/01 09:48:13;;;;;;;0.30;0.30;;;10.80;98.20;;;;;;5016410;28;20176;-67
2021/11/01 09:50:39;;;;;;;0.30;0.30;;;10.60;98.90;;;;;;5016047;28;20195;-68
2021/11/01 09:53:28;;;;;;;0.30;0.30;;;10.50;99.20;;;;;;5016226;28;20660;-68
2021/11/01 10:01:25;;;;;;;0.30;0.30;;;10.70;99.20;;;;;;5016519;28;20167;-68
2021/11/01 10:03:52;;;;;;;0.30;0.30;;;10.80;99.00;;;;;;5016040;28;20549;-68
2021/11/01 10:06:22;;;;;;;0.30;0.30;;;11.00;98.90;;;;;;5016010;28;20402;-66
2021/11/01 10:09:00;;;;;;;0.30;0.30;;;11.10;99.20;;;;;;5015112;28;20175;-68
2021/11/01 10:11:28;;;;;;;0.30;0.30;;;11.10;99.40;;;;;;5016005;28;20168;-67
2021/11/01 10:14:00;;;;;;;0.30;0.30;;;10.90;98.60;;;;;;5015778;28;20652;-68
2021/11/01 10:19:14;;;;;;;0.30;0.30;;;11.00;98.60;;;;;;5015753;28;20205;-69
2021/11/01 10:21:53;;;;;;;0.30;0.30;;;11.10;98.90;;;;;;5015627;28;20229;-68
2021/11/01 10:24:28;;;;;;;0.30;0.30;;;11.30;99.00;;;;;;5015735;28;20175;-67
2021/11/01 10:26:56;;;;;;;0.30;0.30;;;11.20;98.20;;;;;;5015497;28;20177;-68
2021/11/01 10:29:22;;;;;;;0.30;0.30;;;11.10;98.00;;;;;;5015552;28;20167;-68
2021/11/01 10:31:48;;;;;;;0.30;0.30;;;11.00;98.30;;;;;;5015598;28;20187;-68
2021/11/01 10:34:15;;;;;;;0.30;0.30;;;11.10;98.30;;;;;;5015446;28;20183;-67
2021/11/01 10:36:43;;;;;;;0.30;0.30;;;11.20;98.20;;;;;;5015295;28;20783;-68
2021/11/01 10:39:19;;;;;;;0.30;0.30;;;11.30;98.40;;;;;;5013970;28;20208;-69
2021/11/01 11:19:34;;;;;;;0.30;0.30;;;12.30;96.70;;;;;;5014424;28;20445;-68
2021/11/01 11:39:05;;;;;;;0.30;0.30;;;11.70;96.20;;;;;;5014510;28;20409;-69
2021/11/01 11:47:39;;;;;;;0.30;0.30;;;12.20;97.10;;;;;;5014329;28;20177;-68
2021/11/01 11:50:14;;;;;;;0.30;0.30;;;12.30;97.60;;;;;;5014182;28;20533;-69
2021/11/01 11:52:40;;;;;;;0.30;0.30;;;12.30;97.00;;;;;;5014021;28;20201;-69
2021/11/01 11:55:18;;;;;;;0.30;0.30;;;12.30;97.10;;;;;;5013975;28;20410;-67
2021/11/01 11:57:44;;;;;;;0.30;0.30;;;12.40;96.90;;;;;;5014275;28;20266;-68
2021/11/01 12:00:16;;;;;;;0.30;0.30;;;12.50;96.90;;;;;;5013829;28;20817;-67
2021/11/01 12:02:44;;;;;;;0.30;0.30;;;12.50;96.30;;;;;;5013894;28;20191;-69
2021/11/01 12:05:28;;;;;;;0.30;0.30;;;12.40;95.90;;;;;;5013963;28;20171;-67
2021/11/01 12:08:23;;;;;;;0.30;0.30;;;12.30;95.90;;;;;;5013680;28;20258;-68
2021/11/01 12:19:03;;;;;;;0.30;0.30;;;12.60;96.00;;;;;;5013860;28;20413;-68
2021/11/01 12:21:31;;;;;;;0.30;0.30;;;12.50;95.80;;;;;;5012410;28;20954;-68
2021/11/01 12:23:57;;;;;;;0.30;0.30;;;12.40;95.60;;;;;;5013682;28;20406;-68
2021/11/01 12:26:24;;;;;;;0.50;0.50;;;12.40;95.80;;;;;;5013739;28;20536;-67
2021/11/01 12:28:58;;;;;;;0.30;0.30;;;12.40;95.80;;;;;;5013723;28;20175;-68
2021/11/01 12:31:27;;;;;;;1.67;1.60;;;12.30;95.80;;;;;;5014972;28;20449;-69
2021/11/01 12:33:57;;;;;;;0.40;0.40;;;12.30;95.80;;;;;;5017647;28;20438;-69
2021/11/01 12:36:29;;;;;;;0.70;0.70;;;12.50;96.20;;;;;;5017594;28;20409;-67
2021/11/01 12:39:08;;;;;;;0.40;0.40;;;12.40;95.80;;;;;;5017699;28;20888;-68
2021/11/01 12:42:06;;;;;;;0.50;0.50;;;12.50;96.00;;;;;;5017728;28;20498;-68
2021/11/01 12:58:05;;;;;;;0.30;0.30;;;13.30;94.90;;;;;;5017453;28;20444;-68
2021/11/01 13:00:49;;;;;;;2.20;0.70;;;13.30;94.80;;;;;;5017074;28;20457;-68
2021/11/01 13:03:18;;;;;;;0.30;0.30;;;13.10;94.50;;;;;;5017122;28;20425;-69
2021/11/01 13:05:54;;;;;;;0.30;0.30;;;13.10;94.70;;;;;;5016888;28;20908;-69
2021/11/01 13:08:28;;;;;;;0.30;0.30;;;13.10;95.10;;;;;;5017227;28;20398;-69
2021/11/01 13:11:01;;;;;;;0.40;0.40;;;12.80;94.60;;;;;;5017219;28;20490;-68
2021/11/01 13:18:47;;;;;;;0.30;0.30;;;12.80;94.60;;;;;;5016977;28;20426;-68
2021/11/01 13:21:23;;;;;;;0.30;0.30;;;12.60;94.60;;;;;;5017036;28;20430;-68
2021/11/01 13:23:56;;;;;;;0.30;0.30;;;12.60;95.10;;;;;;5017027;28;20156;-68
2021/11/01 13:34:49;;;;;;;3.77;1.60;;;13.20;95.50;;;;;;5016640;28;20477;-69
2021/11/01 13:37:22;;;;;;;0.40;0.40;;;13.30;94.70;;;;;;5016762;28;20410;-68
2021/11/01 13:40:04;;;;;;;0.60;0.60;;;13.30;94.60;;;;;;5016606;28;20568;-68
2021/11/01 13:42:31;;;;;;;2.00;0.90;;;13.50;94.80;;;;;;5016426;28;20425;-69
2021/11/01 13:45:15;;;;;;;0.30;0.30;;;13.50;94.20;;;;;;5016407;28;20504;-69
2021/11/01 13:47:48;;;;;;;0.30;0.30;;;13.50;94.20;;;;;;5016391;28;20774;-67
2021/11/01 13:50:17;;;;;;;0.30;0.30;;;13.50;93.70;;;;;;5016215;28;20434;-68
2021/11/01 13:52:53;;;;;;;0.30;0.30;;;13.50;94.00;;;;;;5016056;28;20932;-69
2021/11/01 13:55:31;;;;;;;0.30;0.30;;;13.30;93.90;;;;;;5016253;28;20406;-69
2021/11/01 13:58:17;;;;;;;0.50;0.50;;;13.30;93.90;;;;;;5016349;28;20496;-67
2021/11/01 14:10:53;;;;;;;0.30;0.30;;;13.30;94.90;;;;;;5015963;28;20425;-68
2021/11/01 14:17:28;;;;;;;0.40;0.40;;;12.90;96.10;;;;;;5015759;28;20774;-67
2021/11/01 14:20:14;;;;;;;0.30;0.30;;;13.10;96.30;;;;;;5015897;28;20617;-68
2021/11/01 15:13:30;;;;;;;0.30;0.30;;;12.40;98.70;;;;;;5014945;28;20197;-69
2021/11/01 15:24:21;;;;;;;0.50;0.50;;;11.90;99.40;;;;;;5014969;28;20167;-68
2021/11/01 15:37:09;;;;;;;0.50;0.50;;;11.50;99.90;;;;;;5014507;28;20159;-69
2021/11/01 16:15:24;;;;;;;0.30;0.30;;;11.40;99.90;;;;;;5014316;28;20207;-67
2021/11/01 16:15:43;;;;;;;0.30;0.30;;;11.50;99.90;;;;;;5013730;28;20183;-68
2021/11/01 16:20:24;;;;;;;0.38;0.38;;;11.30;99.90;;;;;;5013823;28;20290;-68
2021/11/01 16:25:37;;;;;;;0.30;0.30;;;11.20;99.90;;;;;;5013963;28;20177;-69
2021/11/01 16:28:03;;;;;;;0.30;0.30;;;11.20;99.90;;;;;;5013767;28;20202;-69
2021/11/01 16:30:31;;;;;;;0.30;0.30;;;11.20;99.90;;;;;;5013878;28;20175;-68
2021/11/01 16:33:03;;;;;;;0.30;0.30;;;11.10;99.90;;;;;;5013590;28;20501;-68
2021/11/01 16:35:44;;;;;;;0.30;0.30;;;10.90;99.90;;;;;;5028627;28;20183;-69
2021/11/01 16:38:24;;;;;;;0.30;0.30;;;10.90;99.90;;;;;;5013828;28;20182;-68
2021/11/01 16:40:52;;;;;;;0.30;0.30;;;10.80;99.90;;;;;;5013765;28;20199;-67
2021/11/01 16:43:19;;;;;;;0.30;0.30;;;10.90;99.90;;;;;;5013401;28;20187;-68
2021/11/01 16:45:49;;;;;;;0.30;0.30;;;10.70;99.90;;;;;;5013278;28;20700;-68
2021/11/01 16:48:15;;;;;;;0.30;0.30;;;10.60;99.90;;;;;;5013534;28;20633;-66
2021/11/01 16:50:41;;;;;;;0.30;0.30;;;10.70;99.90;;;;;;5012170;28;20692;-68
2021/11/01 16:53:07;;;;;;;0.30;0.30;;;10.80;99.90;;;;;;5012376;28;20214;-69
2021/11/01 16:55:40;;;;;;;0.30;0.30;;;10.80;99.90;;;;;;5013333;28;20176;-69
2021/11/01 16:58:23;;;;;;;0.30;0.30;;;10.90;99.90;;;;;;5013456;28;20645;-67
2021/11/01 17:00:59;;;;;;;0.30;0.30;;;10.80;99.90;;;;;;5013880;28;20192;-69
2021/11/01 17:09:24;;;;;;;0.30;0.30;;;10.80;99.90;;;;;;5013445;28;20527;-67
2021/11/01 17:22:29;;;;;;;0.30;0.30;;;10.00;99.90;;;;;;5032343;28;20190;-67
2021/11/01 18:53:34;;;;;;;0.30;0.30;;;9.10;99.90;;;;;;5015452;28;20199;-67
2021/11/01 18:56:09;;;;;;;0.30;0.30;;;9.10;99.90;;;;;;5015065;28;20184;-67
2021/11/01 18:58:38;;;;;;;0.30;0.30;;;9.10;99.90;;;;;;5015235;28;20545;-68
2021/11/01 19:01:07;;;;;;;0.30;0.30;;;9.20;99.90;;;;;;5014888;28;20206;-68
2021/11/01 19:03:38;;;;;;;0.30;0.30;;;9.30;99.90;;;;;;5014888;28;20192;-68
2021/11/01 19:09:06;;;;;;;0.30;0.30;;;9.20;99.90;;;;;;5015058;28;20198;-69
2021/11/01 20:04:15;;;;;;;0.30;0.30;;;9.70;99.90;;;;;;5014001;28;20286;-68
2021/11/01 21:27:04;;;;;;;0.30;0.30;;;9.30;99.90;;;;;;5016855;28;20221;-68
2021/11/01 21:29:35;;;;;;;0.30;0.30;;;9.10;99.90;;;;;;5016785;28;20591;-68
2021/11/01 21:32:02;;;;;;;0.30;0.30;;;9.10;99.90;;;;;;5016864;28;20191;-67
2021/11/01 21:34:36;;;;;;;0.30;0.30;;;9.10;99.90;;;;;;5016565;28;20179;-67
2021/11/01 21:37:04;;;;;;;0.30;0.30;;;9.00;99.90;;;;;;5016633;28;20524;-69
2021/11/01 21:39:30;;;;;;;0.30;0.30;;;8.90;99.90;;;;;;5016281;28;20205;-69
2021/11/01 21:41:56;;;;;;;0.30;0.30;;;8.90;99.90;;;;;;5016406;28;20188;-69
2021/11/01 21:44:22;;;;;;;0.40;0.40;;;8.80;99.90;;;;;;5016446;28;20457;-68
2021/11/01 21:46:48;;;;;;;0.30;0.30;;;8.80;99.90;;;;;;5016254;28;20183;-69
2021/11/01 21:49:14;;;;;;;0.45;0.45;;;8.80;99.90;;;;;;5016411;28;20406;-68
2021/11/01 21:51:42;;;;;;;0.30;0.30;;;8.90;99.90;;;;;;5016449;28;20175;-67
2021/11/01 21:57:08;;;;;;;0.30;0.30;;;9.10;99.90;;;;;;5016473;28;20190;-69
2021/11/01 22:24:23;;;;;;;0.30;0.30;;;9.00;99.90;;;;;;5013856;28;20700;-67
2021/11/01 22:32:09;;;;;;;0.30;0.30;;;9.10;99.90;;;;;;5015738;28;20234;-68
2021/11/01 22:55:57;;;;;;;0.30;0.30;;;9.70;99.90;;;;;;5015019;28;20183;-67
2021/11/01 22:58:24;;;;;;;0.30;0.30;;;9.70;99.90;;;;;;5015254;28;20230;-68
2021/11/01 23:01:00;;;;;;;0.30;0.30;;;9.70;99.90;;;;;;5013607;28;20210;-67
2021/11/01 23:31:36;;;;;;;0.30;0.30;;;9.40;99.90;;;;;;5015010;28;20269;-69
2021/11/01 23:33:29;;;;;;;0.30;0.30;;;9.40;99.90;;;;;;5013713;28;20701;-67
2021/11/01 23:35:55;;;;;;;0.40;0.40;;;9.40;99.90;;;;;;5014350;28;20201;-69
2021/11/01 23:38:22;;;;;;;0.30;0.30;;;9.40;99.90;;;;;;5014382;28;20207;-69
2021/11/01 23:40:48;;;;;;;0.30;0.30;;;9.40;99.90;;;;;;5014570;28;20195;-69
2021/11/01 23:43:14;;;;;;;0.40;0.40;;;9.40;99.90;;;;;;5014245;28;20677;-68
2021/11/01 23:45:45;;;;;;;0.30;0.30;;;9.40;99.90;;;;;;5014142;28;20452;-69
2021/11/01 23:48:12;;;;;;;0.30;0.30;;;9.30;99.90;;;;;;5014142;28;20191;-68
2021/11/01 23:50:39;;;;;;;0.30;0.30;;;9.20;99.90;;;;;;5014125;28;20551;-69
2021/11/01 23:53:32;;;;;;;0.30;0.30;;;9.20;99.90;;;;;;5014066;28;20195;-69
2021/11/01 23:55:58;;;;;;;0.30;0.30;;;9.20;99.90;;;;;;5013929;28;20184;-68
2021/11/01 23:58:23;;;;;;;0.30;0.30;;;9.40;99.90;;;;;;5014195;28;20183;-68
